createdAt,value
2023-05-17T00:02:02.695Z,18.97
2023-05-17T00:04:29.628Z,19.43
2023-05-17T00:06:56.546Z,19.47
2023-05-17T00:09:23.462Z,19.37
2023-05-17T00:11:50.427Z,18.97
2023-05-17T00:14:17.365Z,18.44
2023-05-17T00:16:44.305Z,17.80
2023-05-17T00:19:11.349Z,17.44
2023-05-17T00:21:38.407Z,17.96
2023-05-17T00:24:05.748Z,17.82
2023-05-17T00:26:34.216Z,18.00
2023-05-17T00:29:01.408Z,17.60
2023-05-17T00:31:28.319Z,17.63
2023-05-17T00:33:55.427Z,17.80
2023-05-17T00:36:22.401Z,17.32
2023-05-17T00:38:50.319Z,17.08
2023-05-17T00:41:18.269Z,16.96
2023-05-17T00:43:45.127Z,16.50
2023-05-17T00:46:12.066Z,16.44
2023-05-17T00:48:39.275Z,16.53
2023-05-17T00:51:06.463Z,16.62
2023-05-17T00:53:33.878Z,16.98
2023-05-17T00:56:01.139Z,16.50
2023-05-17T00:58:28.115Z,16.91
2023-05-17T01:00:55.255Z,16.32
2023-05-17T01:03:25.049Z,16.32
2023-05-17T01:05:52.106Z,16.42
2023-05-17T01:08:19.068Z,16.61
2023-05-17T01:11:24.867Z,16.49
2023-05-17T01:14:24.448Z,16.33
2023-05-17T01:16:57.507Z,16.74
2023-05-17T01:19:24.446Z,16.35
2023-05-17T01:22:04.202Z,16.55
2023-05-17T01:24:39.432Z,16.37
2023-05-17T01:27:07.078Z,16.57
2023-05-17T01:29:36.123Z,16.85
2023-05-17T01:32:03.834Z,16.44
2023-05-17T01:34:30.748Z,15.93
2023-05-17T01:36:58.369Z,15.86
2023-05-17T01:39:25.515Z,16.09
2023-05-17T01:42:28.317Z,15.94
2023-05-17T01:45:03.905Z,16.24
2023-05-17T01:47:38.342Z,15.97
2023-05-17T01:50:06.958Z,16.03
2023-05-17T01:52:56.635Z,15.98
2023-05-17T01:55:27.711Z,16.26
2023-05-17T01:57:56.554Z,15.74
2023-05-17T02:00:26.041Z,16.63
2023-05-17T02:02:52.988Z,16.77
2023-05-17T02:05:19.924Z,16.30
2023-05-17T02:07:46.861Z,16.09
2023-05-17T02:10:13.960Z,16.17
2023-05-17T02:12:41.095Z,16.15
2023-05-17T02:15:11.239Z,15.95
2023-05-17T02:17:39.720Z,15.97
2023-05-17T02:20:08.754Z,16.10
2023-05-17T02:22:35.943Z,16.34
2023-05-17T02:25:02.823Z,16.25
2023-05-17T02:27:29.758Z,16.24
2023-05-17T02:29:56.727Z,15.61
2023-05-17T02:32:23.730Z,16.17
2023-05-17T02:34:50.719Z,16.39
2023-05-17T02:37:17.571Z,16.19
2023-05-17T02:39:44.448Z,16.77
2023-05-17T02:42:11.409Z,16.93
2023-05-17T02:44:38.313Z,16.92
2023-05-17T02:47:05.649Z,16.49
2023-05-17T02:49:32.577Z,16.27
2023-05-17T02:52:01.018Z,16.64
2023-05-17T02:54:27.938Z,16.53
2023-05-17T02:56:54.800Z,16.51
2023-05-17T02:59:22.417Z,16.76
2023-05-17T03:01:50.332Z,16.22
2023-05-17T03:04:17.636Z,16.70
2023-05-17T03:06:44.514Z,16.36
2023-05-17T03:09:11.457Z,16.95
2023-05-17T03:11:38.355Z,17.44
2023-05-17T03:14:05.219Z,16.62
2023-05-17T03:16:32.124Z,17.54
2023-05-17T03:18:59.249Z,17.45
2023-05-17T03:21:26.347Z,17.24
2023-05-17T03:23:53.298Z,17.03
2023-05-17T03:26:20.187Z,17.01
2023-05-17T03:28:47.166Z,17.19
2023-05-17T03:31:14.148Z,17.34
2023-05-17T03:33:41.219Z,17.25
2023-05-17T03:36:08.443Z,17.62
2023-05-17T03:38:35.792Z,16.75
2023-05-17T03:41:03.428Z,16.95
2023-05-17T03:43:30.687Z,16.55
2023-05-17T03:45:57.700Z,17.00
2023-05-17T03:48:24.835Z,16.59
2023-05-17T03:50:51.877Z,16.17
2023-05-17T03:53:18.783Z,16.07
2023-05-17T03:55:45.887Z,15.87
2023-05-17T03:58:12.766Z,16.20
2023-05-17T04:00:39.685Z,16.30
2023-05-17T04:03:06.605Z,15.59
2023-05-17T04:05:33.608Z,15.76
2023-05-17T04:08:00.706Z,15.63
2023-05-17T04:10:27.694Z,15.43
2023-05-17T04:12:54.571Z,15.60
2023-05-17T04:15:22.011Z,15.92
2023-05-17T04:17:49.055Z,15.87
2023-05-17T04:20:15.980Z,15.32
2023-05-17T04:22:42.915Z,15.58
2023-05-17T04:25:10.061Z,16.29
2023-05-17T04:27:38.408Z,16.06
2023-05-17T04:30:06.267Z,15.87
2023-05-17T04:32:34.368Z,15.71
2023-05-17T04:35:01.457Z,15.24
2023-05-17T04:37:28.358Z,15.95
2023-05-17T04:39:55.282Z,15.32
2023-05-17T04:42:22.356Z,15.66
2023-05-17T04:44:49.230Z,15.17
2023-05-17T04:47:16.125Z,15.52
2023-05-17T04:49:43.463Z,15.65
2023-05-17T04:52:10.562Z,15.88
2023-05-17T04:54:37.631Z,15.95
2023-05-17T04:57:04.671Z,15.94
2023-05-17T04:59:31.562Z,15.84
2023-05-17T05:01:58.417Z,16.31
2023-05-17T05:04:25.801Z,15.54
2023-05-17T05:06:52.690Z,15.38
2023-05-17T05:09:19.638Z,15.59
2023-05-17T05:11:46.532Z,15.57
2023-05-17T05:14:13.437Z,15.36
2023-05-17T05:16:40.323Z,15.46
2023-05-17T05:19:11.718Z,15.50
2023-05-17T05:21:38.821Z,15.56
2023-05-17T05:24:06.035Z,15.38
2023-05-17T05:26:33.152Z,15.29
2023-05-17T05:29:00.086Z,15.80
2023-05-17T05:31:26.976Z,16.43
2023-05-17T05:33:54.069Z,16.53
2023-05-17T05:36:21.016Z,15.84
2023-05-17T05:38:48.934Z,15.83
2023-05-17T05:41:15.844Z,15.79
2023-05-17T05:43:42.722Z,15.82
2023-05-17T05:46:09.577Z,15.82
2023-05-17T05:48:39.811Z,15.84
2023-05-17T05:51:06.785Z,15.96
2023-05-17T05:53:33.769Z,15.68
2023-05-17T05:56:01.368Z,15.40
2023-05-17T05:58:47.094Z,15.40
2023-05-17T06:01:14.104Z,15.97
2023-05-17T06:03:40.983Z,15.99
2023-05-17T06:06:08.046Z,16.43
2023-05-17T06:08:34.972Z,16.31
2023-05-17T06:11:01.884Z,15.83
2023-05-17T06:13:28.784Z,15.80
2023-05-17T06:15:55.997Z,16.32
2023-05-17T06:18:23.007Z,15.72
2023-05-17T06:20:49.954Z,15.70
2023-05-17T06:23:17.134Z,15.64
2023-05-17T06:25:44.043Z,15.98
2023-05-17T06:28:12.117Z,15.69
2023-05-17T06:30:39.024Z,15.76
2023-05-17T06:33:06.056Z,14.65
2023-05-17T06:35:40.787Z,15.52
2023-05-17T06:38:19.906Z,15.84
2023-05-17T06:40:46.823Z,15.48
2023-05-17T06:43:13.720Z,15.08
2023-05-17T06:45:40.803Z,15.26
2023-05-17T06:48:07.866Z,15.18
2023-05-17T06:50:34.866Z,15.32
2023-05-17T06:53:01.766Z,16.15
2023-05-17T06:55:31.006Z,15.63
2023-05-17T06:58:00.270Z,15.11
2023-05-17T07:00:27.640Z,15.45
2023-05-17T07:02:54.850Z,15.62
2023-05-17T07:05:27.377Z,15.69
2023-05-17T07:07:54.690Z,15.15
2023-05-17T07:10:21.659Z,15.04
2023-05-17T07:12:48.744Z,14.23
2023-05-17T07:15:15.921Z,14.79
2023-05-17T07:17:42.859Z,15.34
2023-05-17T07:20:10.506Z,15.37
2023-05-17T07:22:37.983Z,15.41
2023-05-17T07:25:05.767Z,15.63
2023-05-17T07:27:32.702Z,14.69
2023-05-17T07:29:59.615Z,14.46
2023-05-17T07:32:26.545Z,15.25
2023-05-17T07:34:53.449Z,15.27
2023-05-17T07:37:21.094Z,15.88
2023-05-17T07:39:49.016Z,15.16
2023-05-17T07:42:16.382Z,15.76
2023-05-17T07:44:43.306Z,15.10
2023-05-17T07:47:10.189Z,15.82
2023-05-17T07:49:41.233Z,15.29
2023-05-17T07:52:08.694Z,15.90
2023-05-17T07:54:35.728Z,15.67
2023-05-17T07:57:02.642Z,15.52
2023-05-17T07:59:30.587Z,15.78
2023-05-17T08:01:57.598Z,15.50
2023-05-17T08:04:26.858Z,15.57
2023-05-17T08:07:01.573Z,15.44
2023-05-17T08:10:01.859Z,15.62
2023-05-17T08:12:32.256Z,15.25
2023-05-17T08:14:59.301Z,15.70
2023-05-17T08:17:27.997Z,15.58
2023-05-17T08:19:54.974Z,15.19
2023-05-17T08:22:23.770Z,15.58
2023-05-17T08:24:51.513Z,15.69
2023-05-17T08:27:18.690Z,15.85
2023-05-17T08:30:15.175Z,15.24
2023-05-17T08:32:51.102Z,15.03
2023-05-17T08:35:18.123Z,15.60
2023-05-17T08:37:45.040Z,15.95
2023-05-17T08:40:15.045Z,16.33
2023-05-17T08:42:42.208Z,15.39
2023-05-17T08:45:10.483Z,15.78
2023-05-17T08:47:38.035Z,16.18
2023-05-17T08:50:06.200Z,15.74
2023-05-17T08:52:33.891Z,15.83
2023-05-17T08:55:08.322Z,15.89
2023-05-17T08:57:39.470Z,15.30
2023-05-17T09:00:12.672Z,16.34
2023-05-17T09:02:43.094Z,15.87
2023-05-17T09:05:10.964Z,16.68
2023-05-17T09:07:38.244Z,16.29
2023-05-17T09:10:06.126Z,16.51
2023-05-17T09:12:36.855Z,16.10
2023-05-17T09:15:17.139Z,16.61
2023-05-17T09:17:44.570Z,16.78
2023-05-17T09:20:11.836Z,16.87
2023-05-17T09:22:38.904Z,16.65
2023-05-17T09:25:06.226Z,16.06
2023-05-17T09:27:33.182Z,15.47
2023-05-17T09:30:00.245Z,15.51
2023-05-17T09:32:28.620Z,15.54
2023-05-17T09:34:59.184Z,15.38
2023-05-17T09:37:26.665Z,15.14
2023-05-17T09:39:55.414Z,15.97
2023-05-17T09:42:26.605Z,15.21
2023-05-17T09:45:00.585Z,14.66
2023-05-17T09:47:29.175Z,14.80
2023-05-17T09:49:58.665Z,14.58
2023-05-17T09:52:26.154Z,14.58
2023-05-17T09:54:57.672Z,14.70
2023-05-17T09:57:28.865Z,15.05
2023-05-17T09:59:57.566Z,15.13
2023-05-17T10:02:31.290Z,15.77
2023-05-17T10:04:58.669Z,14.63
2023-05-17T10:07:27.069Z,14.50
2023-05-17T10:09:56.254Z,15.11
2023-05-17T10:12:24.351Z,15.37
2023-05-17T10:14:56.107Z,14.92
2023-05-17T10:17:24.076Z,15.31
2023-05-17T10:19:51.808Z,15.49
2023-05-17T10:22:23.444Z,15.55
2023-05-17T10:24:51.882Z,14.38
2023-05-17T10:27:19.058Z,15.26
2023-05-17T10:29:49.899Z,15.07
2023-05-17T10:32:19.656Z,14.97
2023-05-17T10:34:54.470Z,15.55
2023-05-17T10:37:32.468Z,14.76
2023-05-17T10:39:59.491Z,15.25
2023-05-17T10:42:27.833Z,15.18
2023-05-17T10:44:54.807Z,14.69
2023-05-17T10:47:24.361Z,14.88
2023-05-17T10:49:52.060Z,14.86
2023-05-17T10:52:21.742Z,14.60
2023-05-17T10:54:50.328Z,14.60
2023-05-17T10:57:36.051Z,14.84
2023-05-17T11:00:20.466Z,13.90
2023-05-17T11:02:49.195Z,14.52
2023-05-17T11:05:27.626Z,14.71
2023-05-17T11:08:17.402Z,14.51
2023-05-17T11:11:14.811Z,14.60
2023-05-17T11:13:50.574Z,14.26
2023-05-17T11:16:18.188Z,14.61
2023-05-17T11:18:57.718Z,14.62
2023-05-17T11:21:28.642Z,14.48
2023-05-17T11:24:00.047Z,14.19
2023-05-17T11:26:40.754Z,14.59
2023-05-17T11:29:10.646Z,14.01
2023-05-17T11:31:44.103Z,14.51
2023-05-17T11:34:11.976Z,14.89
2023-05-17T11:36:55.686Z,15.16
2023-05-17T11:39:24.671Z,15.66
2023-05-17T11:41:53.847Z,14.46
2023-05-17T11:44:25.500Z,14.29
2023-05-17T11:46:53.720Z,14.59
2023-05-17T11:49:34.817Z,14.46
2023-05-17T11:52:02.436Z,14.35
2023-05-17T11:54:30.310Z,13.87
2023-05-17T11:57:08.780Z,14.29
2023-05-17T11:59:40.326Z,14.14
2023-05-17T12:02:07.485Z,14.70
2023-05-17T12:04:38.467Z,14.30
2023-05-17T12:07:08.074Z,14.24
2023-05-17T12:09:38.829Z,14.40
2023-05-17T12:12:06.303Z,14.00
2023-05-17T12:14:38.391Z,14.38
2023-05-17T12:17:09.298Z,13.85
2023-05-17T12:22:18.906Z,13.72
2023-05-17T12:24:48.251Z,14.23
2023-05-17T12:27:15.212Z,14.27
2023-05-17T12:29:44.878Z,14.10
2023-05-17T12:38:04.164Z,14.04
2023-05-17T12:40:31.513Z,14.28
2023-05-17T12:45:48.280Z,14.71
2023-05-17T12:51:15.220Z,15.16
2023-05-17T12:53:52.801Z,14.70
2023-05-17T12:56:30.001Z,15.31
2023-05-17T12:59:12.465Z,14.74
2023-05-17T13:01:45.083Z,14.87
2023-05-17T13:04:15.309Z,14.83
2023-05-17T13:06:58.356Z,15.17
2023-05-17T13:09:29.066Z,15.20
2023-05-17T13:15:07.853Z,14.88
2023-05-17T13:17:37.316Z,14.88
2023-05-17T13:20:06.447Z,14.13
2023-05-17T13:22:34.789Z,14.06
2023-05-17T13:25:03.687Z,14.32
2023-05-17T13:27:30.618Z,13.99
2023-05-17T13:29:58.067Z,14.24
2023-05-17T13:32:25.277Z,14.61
2023-05-17T13:34:52.256Z,14.34
2023-05-17T13:37:19.135Z,13.78
2023-05-17T13:39:46.128Z,14.24
2023-05-17T13:42:13.924Z,14.37
2023-05-17T13:44:40.917Z,14.37
2023-05-17T13:47:15.214Z,14.25
2023-05-17T13:49:42.808Z,14.85
2023-05-17T13:52:09.786Z,14.63
2023-05-17T13:54:37.235Z,14.10
2023-05-17T13:57:05.731Z,14.29
2023-05-17T13:59:32.870Z,14.06
2023-05-17T14:01:59.861Z,13.84
2023-05-17T14:04:26.998Z,13.97
2023-05-17T14:06:55.174Z,13.79
2023-05-17T14:09:22.410Z,13.84
2023-05-17T14:11:49.323Z,13.64
2023-05-17T14:14:16.245Z,13.04
2023-05-17T14:16:43.164Z,13.34
2023-05-17T14:19:10.305Z,13.51
2023-05-17T14:21:37.239Z,14.30
2023-05-17T14:24:04.241Z,13.89
2023-05-17T14:26:31.359Z,14.07
2023-05-17T14:28:58.670Z,13.19
2023-05-17T14:31:26.630Z,13.49
2023-05-17T14:33:53.705Z,13.43
2023-05-17T14:36:20.755Z,13.02
2023-05-17T14:38:48.740Z,13.03
2023-05-17T14:41:15.684Z,12.92
2023-05-17T14:43:42.587Z,13.38
2023-05-17T14:46:09.465Z,13.23
2023-05-17T14:48:37.093Z,13.74
2023-05-17T14:51:04.232Z,13.35
2023-05-17T14:53:31.186Z,13.51
2023-05-17T14:55:59.130Z,12.88
2023-05-17T14:58:26.393Z,13.20
2023-05-17T15:01:06.130Z,13.14
2023-05-17T15:03:35.011Z,13.11
2023-05-17T15:06:05.072Z,12.83
2023-05-17T15:08:34.797Z,12.59
2023-05-17T15:11:02.212Z,12.43
2023-05-17T15:13:29.108Z,12.69
2023-05-17T15:15:56.007Z,12.84
2023-05-17T15:18:23.012Z,12.47
2023-05-17T15:20:49.980Z,12.11
2023-05-17T15:23:16.913Z,12.32
2023-05-17T15:25:43.828Z,11.82
2023-05-17T15:28:10.904Z,11.88
2023-05-17T15:30:37.856Z,12.20
2023-05-17T15:33:04.902Z,11.54
2023-05-17T15:35:31.938Z,11.15
2023-05-17T15:37:59.851Z,11.12
2023-05-17T15:40:26.805Z,11.19
2023-05-17T15:42:53.686Z,10.99
2023-05-17T15:45:21.637Z,11.29
2023-05-17T15:47:49.674Z,11.15
2023-05-17T15:50:16.905Z,11.78
2023-05-17T15:52:43.771Z,11.26
2023-05-17T15:55:11.196Z,10.86
2023-05-17T15:57:38.075Z,10.93
2023-05-17T16:00:05.706Z,10.67
2023-05-17T16:02:32.664Z,10.89
2023-05-17T16:05:03.386Z,11.05
2023-05-17T16:07:31.472Z,10.84
2023-05-17T16:09:58.591Z,10.77
2023-05-17T16:12:25.465Z,10.92
2023-05-17T16:14:52.316Z,10.90
2023-05-17T16:17:19.329Z,11.17
2023-05-17T16:19:46.455Z,10.88
2023-05-17T16:22:14.189Z,10.32
2023-05-17T16:24:42.026Z,10.67
2023-05-17T16:27:08.946Z,10.34
2023-05-17T16:29:40.144Z,10.97
2023-05-17T16:32:08.493Z,11.08
2023-05-17T16:34:35.961Z,10.60
2023-05-17T16:37:04.936Z,10.77
2023-05-17T16:39:32.847Z,10.79
2023-05-17T16:41:59.786Z,10.75
2023-05-17T16:44:26.713Z,10.91
2023-05-17T16:46:53.662Z,10.67
2023-05-17T16:49:20.643Z,10.43
2023-05-17T16:51:47.590Z,10.99
2023-05-17T16:54:14.531Z,10.94
2023-05-17T16:56:41.500Z,10.68
2023-05-17T16:59:08.638Z,11.02
2023-05-17T17:01:35.540Z,10.63
2023-05-17T17:04:03.510Z,10.93
2023-05-17T17:06:31.656Z,11.19
2023-05-17T17:08:58.675Z,10.47
2023-05-17T17:11:26.370Z,10.71
2023-05-17T17:13:53.629Z,10.56
2023-05-17T17:16:21.360Z,10.52
2023-05-17T17:18:49.861Z,11.06
2023-05-17T17:21:17.089Z,10.70
2023-05-17T17:23:44.621Z,10.67
2023-05-17T17:26:11.612Z,9.99
2023-05-17T17:28:38.862Z,10.30
2023-05-17T17:31:09.253Z,10.39
2023-05-17T17:33:36.306Z,10.65
2023-05-17T17:36:03.775Z,10.67
2023-05-17T17:38:31.303Z,10.41
2023-05-17T17:40:58.156Z,10.73
2023-05-17T17:43:25.066Z,10.83
2023-05-17T17:45:52.103Z,10.46
2023-05-17T17:48:19.026Z,10.55
2023-05-17T17:50:45.911Z,11.13
2023-05-17T17:53:12.917Z,10.95
2023-05-17T17:55:39.795Z,11.30
2023-05-17T17:58:07.022Z,10.54
2023-05-17T18:00:34.117Z,10.75
2023-05-17T18:03:01.183Z,10.45
2023-05-17T18:05:28.233Z,10.49
2023-05-17T18:07:55.558Z,10.19
2023-05-17T18:10:22.448Z,10.45
2023-05-17T18:12:51.498Z,10.78
2023-05-17T18:15:18.728Z,10.84
2023-05-17T18:17:46.065Z,10.62
2023-05-17T18:20:13.078Z,10.11
2023-05-17T18:22:40.025Z,9.92
2023-05-17T18:25:07.171Z,10.89
2023-05-17T18:27:35.417Z,10.73
2023-05-17T18:30:02.891Z,10.64
2023-05-17T18:32:30.029Z,10.58
2023-05-17T18:34:57.062Z,10.82
2023-05-17T18:37:23.925Z,10.78
2023-05-17T18:39:50.789Z,11.08
2023-05-17T18:42:17.655Z,10.81
2023-05-17T18:44:44.660Z,10.77
2023-05-17T18:47:12.249Z,11.24
2023-05-17T18:49:42.468Z,10.47
2023-05-17T18:52:09.327Z,11.00
2023-05-17T18:54:36.219Z,10.92
2023-05-17T18:57:03.185Z,10.87
2023-05-17T18:59:30.132Z,10.96
2023-05-17T19:01:57.213Z,11.45
2023-05-17T19:04:24.220Z,11.17
2023-05-17T19:06:51.228Z,11.12
2023-05-17T19:09:18.346Z,10.33
2023-05-17T19:11:45.223Z,10.35
2023-05-17T19:14:14.793Z,10.66
2023-05-17T19:16:42.102Z,10.80
2023-05-17T19:19:09.284Z,10.40
2023-05-17T19:21:36.342Z,10.79
2023-05-17T19:24:05.731Z,11.19
2023-05-17T19:26:32.600Z,11.17
2023-05-17T19:28:59.542Z,10.63
2023-05-17T19:31:26.488Z,10.57
2023-05-17T19:33:53.446Z,10.64
2023-05-17T19:36:20.265Z,10.47
2023-05-17T19:38:46.999Z,11.04
2023-05-17T19:41:13.885Z,10.29
2023-05-17T19:43:40.881Z,10.67
2023-05-17T19:46:10.796Z,10.48
2023-05-17T19:48:38.544Z,10.29
2023-05-17T19:51:05.515Z,10.11
2023-05-17T19:53:43.912Z,9.89
2023-05-17T19:56:18.236Z,10.47
2023-05-17T19:58:45.142Z,10.39
2023-05-17T20:01:12.118Z,10.31
2023-05-17T20:03:40.759Z,10.48
2023-05-17T20:06:11.215Z,11.13
2023-05-17T20:08:38.076Z,10.58
2023-05-17T20:11:06.212Z,11.01
2023-05-17T20:13:34.336Z,11.25
2023-05-17T20:16:01.525Z,11.09
2023-05-17T20:18:30.198Z,10.80
2023-05-17T20:20:57.355Z,11.07
2023-05-17T20:23:24.235Z,11.62
2023-05-17T20:25:51.232Z,10.71
2023-05-17T20:28:18.333Z,11.06
2023-05-17T20:30:46.174Z,10.89
2023-05-17T20:33:13.246Z,11.07
2023-05-17T20:35:40.255Z,11.05
2023-05-17T20:38:07.145Z,11.27
2023-05-17T20:40:34.220Z,11.22
2023-05-17T20:43:01.173Z,11.63
2023-05-17T20:45:29.945Z,11.13
2023-05-17T20:47:57.192Z,10.87
2023-05-17T20:50:24.223Z,11.18
2023-05-17T20:52:51.408Z,11.37
2023-05-17T20:55:18.299Z,11.64
2023-05-17T20:57:45.191Z,11.46
2023-05-17T21:00:12.776Z,11.27
2023-05-17T21:02:39.763Z,11.39
2023-05-17T21:05:06.867Z,11.48
2023-05-17T21:07:35.010Z,11.27
2023-05-17T21:10:01.887Z,11.35
2023-05-17T21:12:28.800Z,11.33
2023-05-17T21:15:14.494Z,10.89
2023-05-17T21:17:42.550Z,11.21
2023-05-17T21:20:09.966Z,11.51
2023-05-17T21:22:37.725Z,11.56
2023-05-17T21:25:05.385Z,11.54
2023-05-17T21:27:34.056Z,11.07
2023-05-17T21:30:01.720Z,10.99
2023-05-17T21:32:28.706Z,11.24
2023-05-17T21:34:55.815Z,10.95
2023-05-17T21:37:22.701Z,11.28
2023-05-17T21:39:49.571Z,10.87
2023-05-17T21:42:16.630Z,11.04
2023-05-17T21:44:43.477Z,11.54
2023-05-17T21:47:10.431Z,11.71
2023-05-17T21:49:37.420Z,12.01
2023-05-17T21:52:04.585Z,11.55
2023-05-17T21:54:31.430Z,11.29
2023-05-17T21:56:58.281Z,11.03
2023-05-17T21:59:25.286Z,11.17
2023-05-17T22:01:55.121Z,11.56
2023-05-17T22:04:22.075Z,11.53
2023-05-17T22:06:48.963Z,11.28
2023-05-17T22:09:15.893Z,10.95
2023-05-17T22:11:42.843Z,11.38
2023-05-17T22:14:09.755Z,11.21
2023-05-17T22:16:37.039Z,10.83
2023-05-17T22:19:04.559Z,11.36
2023-05-17T22:21:32.303Z,10.66
2023-05-17T22:23:59.574Z,10.99
2023-05-17T22:26:27.893Z,10.93
2023-05-17T22:28:55.914Z,10.91
2023-05-17T22:31:23.018Z,11.11
2023-05-17T22:33:50.574Z,11.15
2023-05-17T22:36:17.970Z,10.80
2023-05-17T22:38:44.858Z,11.20
2023-05-17T22:41:12.501Z,10.98
2023-05-17T22:43:39.781Z,11.06
2023-05-17T22:46:06.862Z,10.87
2023-05-17T22:48:33.770Z,11.17
2023-05-17T22:51:03.671Z,11.04
2023-05-17T22:53:31.273Z,10.98
2023-05-17T22:55:58.165Z,10.68
2023-05-17T22:58:25.093Z,10.99
2023-05-17T23:00:52.469Z,10.94
2023-05-17T23:03:19.930Z,11.33
2023-05-17T23:05:46.932Z,11.01
2023-05-17T23:08:15.704Z,11.14
2023-05-17T23:10:46.046Z,11.00
2023-05-17T23:13:14.006Z,11.36
2023-05-17T23:15:46.853Z,10.81
2023-05-17T23:18:13.901Z,11.02
2023-05-17T23:20:42.228Z,11.58
2023-05-17T23:23:09.111Z,11.41
2023-05-17T23:25:37.459Z,11.50
2023-05-17T23:28:04.845Z,11.14
2023-05-17T23:30:32.306Z,11.18
2023-05-17T23:33:00.291Z,11.29
2023-05-17T23:35:27.386Z,11.18
2023-05-17T23:37:54.452Z,11.45
2023-05-17T23:40:21.472Z,11.61
2023-05-17T23:42:48.354Z,11.82
2023-05-17T23:45:15.321Z,11.73
2023-05-17T23:47:42.239Z,11.86
2023-05-17T23:50:09.968Z,11.61
2023-05-17T23:52:39.082Z,12.00
2023-05-17T23:55:07.471Z,12.32
2023-05-17T23:57:35.416Z,11.70
